createdAt,value
2019-01-31T00:04:02.732Z,-1.04
2019-01-31T00:09:30.273Z,-0.99
2019-01-31T00:14:54.395Z,-0.91
2019-01-31T00:20:39.672Z,-0.91
2019-01-31T00:26:10.744Z,-0.92
2019-01-31T00:32:00.691Z,-1.06
2019-01-31T00:37:26.848Z,-1.07
2019-01-31T00:42:54.196Z,-1.04
2019-01-31T00:48:39.386Z,-1.04
2019-01-31T00:54:09.491Z,-1.04
2019-01-31T00:59:56.807Z,-1.03
2019-01-31T01:05:18.687Z,-0.97
2019-01-31T01:10:30.870Z,-0.93
2019-01-31T01:16:11.066Z,-1.11
2019-01-31T01:21:41.064Z,-1.06
2019-01-31T01:27:09.299Z,-1.09
2019-01-31T01:32:51.460Z,-1.01
2019-01-31T01:38:28.098Z,-0.96
2019-01-31T01:43:45.845Z,-1.14
2019-01-31T01:49:22.848Z,-1.24
2019-01-31T01:54:52.316Z,-1.32
2019-01-31T02:00:40.773Z,-1.28
2019-01-31T02:06:22.956Z,-1.37
2019-01-31T02:11:43.501Z,-1.43
2019-01-31T02:17:15.273Z,-1.49
2019-01-31T02:22:35.284Z,-1.29
2019-01-31T02:28:31.278Z,-1.31
2019-01-31T02:33:57.177Z,-1.55
2019-01-31T02:39:24.352Z,-1.61
2019-01-31T02:45:20.218Z,-1.69
2019-01-31T02:50:38.790Z,-1.73
2019-01-31T02:56:05.738Z,-1.91
2019-01-31T03:01:23.943Z,-1.99
2019-01-31T03:07:03.922Z,-1.98
2019-01-31T03:12:22.515Z,-1.95
2019-01-31T03:17:52.551Z,-2.03
2019-01-31T03:23:26.752Z,-1.98
2019-01-31T03:28:53.988Z,-2.13
2019-01-31T03:34:33.493Z,-2.13
2019-01-31T03:40:07.506Z,-2.04
2019-01-31T03:45:43.275Z,-1.84
2019-01-31T03:51:12.208Z,-1.87
2019-01-31T03:57:04.187Z,-1.86
2019-01-31T04:02:42.674Z,-1.87
2019-01-31T04:07:46.730Z,-1.77
2019-01-31T04:12:50.864Z,-1.70
2019-01-31T04:17:55.292Z,-1.77
2019-01-31T04:22:59.321Z,-1.80
2019-01-31T04:28:03.377Z,-1.77
2019-01-31T04:33:07.425Z,-1.92
2019-01-31T04:38:11.455Z,-2.03
2019-01-31T04:43:15.464Z,-2.12
2019-01-31T04:48:19.491Z,-2.29
2019-01-31T04:53:23.535Z,-2.48
2019-01-31T04:58:28.167Z,-2.56
2019-01-31T05:03:32.169Z,-2.56
2019-01-31T05:08:36.480Z,-2.57
2019-01-31T05:13:40.544Z,-2.52
2019-01-31T05:18:44.884Z,-2.39
2019-01-31T05:23:49.219Z,-2.38
2019-01-31T05:28:53.294Z,-2.45
2019-01-31T05:33:57.361Z,-2.37
2019-01-31T05:39:01.397Z,-2.40
2019-01-31T05:44:05.501Z,-2.48
2019-01-31T05:49:09.625Z,-2.36
2019-01-31T05:54:14.048Z,-2.32
2019-01-31T05:59:18.377Z,-2.41
2019-01-31T06:04:22.479Z,-2.31
2019-01-31T06:09:26.542Z,-2.12
2019-01-31T06:14:30.551Z,-2.03
2019-01-31T06:19:34.590Z,-1.99
2019-01-31T06:24:38.727Z,-1.99
2019-01-31T06:29:42.891Z,-1.95
2019-01-31T06:34:47.120Z,-1.84
2019-01-31T06:39:51.177Z,-1.64
2019-01-31T06:44:55.588Z,-1.55
2019-01-31T06:50:00.401Z,-1.47
2019-01-31T06:55:05.239Z,-1.47
2019-01-31T07:00:12.591Z,-1.42
2019-01-31T07:05:17.361Z,-1.35
2019-01-31T07:10:23.713Z,-1.20
2019-01-31T07:15:27.771Z,-1.04
2019-01-31T07:20:31.816Z,-1.12
2019-01-31T07:25:36.015Z,-1.14
2019-01-31T07:30:40.335Z,-1.19
2019-01-31T07:35:44.448Z,-1.09
2019-01-31T07:40:48.530Z,-0.95
2019-01-31T07:45:52.713Z,-0.90
2019-01-31T07:50:57.028Z,-0.80
2019-01-31T07:56:01.082Z,-0.73
2019-01-31T08:01:05.388Z,-0.61
2019-01-31T08:06:09.417Z,-0.53
2019-01-31T08:11:13.488Z,-0.43
2019-01-31T08:16:17.537Z,-0.35
2019-01-31T08:21:32.756Z,-0.26
2019-01-31T08:26:36.840Z,-0.01
2019-01-31T08:31:40.944Z,0.19
2019-01-31T08:36:44.982Z,0.36
2019-01-31T08:41:49.028Z,0.51
2019-01-31T08:46:53.039Z,0.75
2019-01-31T08:51:57.206Z,0.92
2019-01-31T08:57:05.096Z,1.05
2019-01-31T09:02:09.400Z,1.18
2019-01-31T09:07:13.520Z,1.33
2019-01-31T09:12:17.675Z,1.53
2019-01-31T09:17:21.989Z,1.92
2019-01-31T09:22:56.249Z,2.32
2019-01-31T09:28:14.859Z,2.66
2019-01-31T09:33:40.358Z,2.71
2019-01-31T09:39:27.301Z,2.98
2019-01-31T09:45:18.985Z,2.71
2019-01-31T09:51:09.960Z,2.43
2019-01-31T09:56:56.895Z,2.59
2019-01-31T10:02:36.257Z,2.95
2019-01-31T10:08:33.901Z,3.05
2019-01-31T10:13:56.261Z,3.08
2019-01-31T10:19:35.456Z,3.41
2019-01-31T10:25:29.725Z,3.58
2019-01-31T10:30:55.592Z,4.35
2019-01-31T10:36:49.568Z,5.47
2019-01-31T10:42:51.778Z,7.89
2019-01-31T10:48:23.589Z,8.75
2019-01-31T10:54:05.172Z,8.92
2019-01-31T10:59:42.604Z,8.91
2019-01-31T11:05:25.824Z,9.22
2019-01-31T11:10:51.116Z,9.50
2019-01-31T11:16:27.356Z,8.62
2019-01-31T11:22:19.109Z,8.84
2019-01-31T11:27:58.413Z,8.48
2019-01-31T11:33:22.438Z,8.49
2019-01-31T11:39:07.613Z,8.66
2019-01-31T11:44:51.083Z,6.65
2019-01-31T11:50:23.104Z,5.30
2019-01-31T11:55:50.184Z,4.63
2019-01-31T12:00:54.309Z,4.84
2019-01-31T12:05:58.473Z,4.69
2019-01-31T12:11:02.509Z,5.05
2019-01-31T12:16:06.523Z,5.11
2019-01-31T12:21:12.336Z,5.15
2019-01-31T12:26:16.612Z,5.17
2019-01-31T12:31:20.731Z,5.38
2019-01-31T12:36:24.763Z,5.29
2019-01-31T12:41:28.804Z,5.20
2019-01-31T12:46:32.941Z,5.47
2019-01-31T12:51:36.939Z,5.41
2019-01-31T12:56:41.187Z,5.44
2019-01-31T13:01:48.209Z,5.41
2019-01-31T13:06:52.265Z,5.11
2019-01-31T13:11:56.361Z,4.96
2019-01-31T13:17:00.406Z,4.82
2019-01-31T13:22:05.170Z,4.91
2019-01-31T13:27:09.231Z,4.84
2019-01-31T13:32:13.762Z,4.81
2019-01-31T13:37:17.819Z,4.64
2019-01-31T13:42:21.928Z,4.47
2019-01-31T13:47:26.065Z,4.30
2019-01-31T13:52:30.227Z,4.37
2019-01-31T13:57:34.306Z,4.32
2019-01-31T14:02:38.476Z,4.64
2019-01-31T14:07:42.483Z,4.94
2019-01-31T14:12:46.533Z,4.81
2019-01-31T14:17:50.925Z,4.91
2019-01-31T14:22:55.262Z,4.96
2019-01-31T14:27:59.366Z,4.67
2019-01-31T14:33:04.607Z,4.81
2019-01-31T14:38:08.656Z,4.71
2019-01-31T14:43:12.723Z,4.58
2019-01-31T14:48:16.902Z,4.13
2019-01-31T14:53:20.916Z,3.65
2019-01-31T14:58:24.951Z,3.19
2019-01-31T15:03:28.992Z,2.80
2019-01-31T15:08:33.164Z,2.34
2019-01-31T15:13:37.289Z,1.91
2019-01-31T15:18:41.362Z,1.64
2019-01-31T15:23:45.795Z,1.63
2019-01-31T15:28:50.230Z,1.40
2019-01-31T15:33:54.404Z,1.06
2019-01-31T15:38:58.458Z,0.82
2019-01-31T15:44:02.638Z,0.69
2019-01-31T15:49:06.679Z,0.61
2019-01-31T15:54:11.168Z,0.42
2019-01-31T15:59:15.180Z,0.24
2019-01-31T16:04:19.465Z,-0.13
2019-01-31T16:09:24.232Z,-0.38
2019-01-31T16:14:28.462Z,-0.63
2019-01-31T16:19:32.524Z,-0.41
2019-01-31T16:24:36.863Z,-0.51
2019-01-31T16:29:40.932Z,-0.81
2019-01-31T16:34:45.169Z,-1.10
2019-01-31T16:39:49.201Z,-1.30
2019-01-31T16:44:53.408Z,-1.49
2019-01-31T16:49:57.481Z,-1.68
2019-01-31T16:55:01.544Z,-1.76
2019-01-31T17:00:07.959Z,-1.87
2019-01-31T17:05:14.762Z,-1.91
2019-01-31T17:10:18.945Z,-1.91
2019-01-31T17:15:23.314Z,-1.97
2019-01-31T17:20:30.527Z,-2.06
2019-01-31T17:25:34.573Z,-2.14
2019-01-31T17:30:38.607Z,-2.38
2019-01-31T17:35:42.651Z,-2.34
2019-01-31T17:40:46.801Z,-2.33
2019-01-31T17:45:50.873Z,-2.44
2019-01-31T17:50:54.895Z,-2.56
2019-01-31T17:55:59.012Z,-2.68
2019-01-31T18:01:03.727Z,-2.73
2019-01-31T18:06:07.817Z,-2.79
2019-01-31T18:11:11.884Z,-2.69
2019-01-31T18:16:15.977Z,-2.63
2019-01-31T18:21:20.170Z,-2.65
2019-01-31T18:26:24.212Z,-2.72
2019-01-31T18:31:28.237Z,-2.81
2019-01-31T18:36:32.279Z,-2.83
2019-01-31T18:41:36.469Z,-2.83
2019-01-31T18:46:40.519Z,-2.77
2019-01-31T18:51:45.014Z,-2.83
2019-01-31T18:56:49.059Z,-2.81
2019-01-31T19:01:53.076Z,-2.84
2019-01-31T19:06:57.235Z,-2.69
2019-01-31T19:12:01.279Z,-2.66
2019-01-31T19:17:05.298Z,-2.79
2019-01-31T19:22:09.346Z,-2.56
2019-01-31T19:27:13.598Z,-2.33
2019-01-31T19:32:17.761Z,-2.24
2019-01-31T19:37:21.812Z,-2.16
2019-01-31T19:42:26.110Z,-2.28
2019-01-31T19:47:30.311Z,-2.38
2019-01-31T19:52:34.912Z,-2.14
2019-01-31T19:57:39.194Z,-2.11
2019-01-31T20:02:43.580Z,-2.00
2019-01-31T20:07:48.109Z,-2.04
2019-01-31T20:12:52.450Z,-2.11
2019-01-31T20:17:56.542Z,-2.08
2019-01-31T20:23:00.773Z,-2.06
2019-01-31T20:28:05.045Z,-2.07
2019-01-31T20:33:09.124Z,-2.30
2019-01-31T20:38:13.250Z,-2.19
2019-01-31T20:43:17.359Z,-2.34
2019-01-31T20:48:21.882Z,-2.57
2019-01-31T20:53:26.343Z,-2.51
2019-01-31T20:58:30.729Z,-2.37
2019-01-31T21:03:34.860Z,-2.29
2019-01-31T21:08:40.835Z,-1.96
2019-01-31T21:13:45.636Z,-1.81
2019-01-31T21:18:52.893Z,-1.69
2019-01-31T21:24:01.866Z,-1.68
2019-01-31T21:29:07.717Z,-1.71
2019-01-31T21:34:17.047Z,-1.90
2019-01-31T21:39:25.057Z,-2.00
2019-01-31T21:44:30.535Z,-2.06
2019-01-31T21:49:37.936Z,-2.16
2019-01-31T21:54:43.760Z,-2.34
2019-01-31T21:59:48.037Z,-2.33
2019-01-31T22:04:52.724Z,-2.31
2019-01-31T22:09:56.857Z,-2.36
2019-01-31T22:15:00.967Z,-2.22
2019-01-31T22:20:05.337Z,-2.42
2019-01-31T22:25:11.195Z,-2.55
2019-01-31T22:30:17.795Z,-2.72
2019-01-31T22:35:21.907Z,-2.69
2019-01-31T22:40:26.288Z,-2.66
2019-01-31T22:45:30.361Z,-2.85
2019-01-31T22:50:34.431Z,-2.88
2019-01-31T22:55:38.891Z,-2.86
2019-01-31T23:00:55.829Z,-2.78
2019-01-31T23:05:59.959Z,-2.97
2019-01-31T23:11:04.336Z,-3.16
2019-01-31T23:16:08.471Z,-3.10
2019-01-31T23:21:13.135Z,-3.07
2019-01-31T23:26:17.268Z,-3.04
2019-01-31T23:31:21.409Z,-2.96
2019-01-31T23:36:25.450Z,-2.99
2019-01-31T23:41:29.585Z,-3.15
2019-01-31T23:46:33.686Z,-3.31
2019-01-31T23:51:37.801Z,-3.45
2019-01-31T23:56:42.496Z,-3.51
